sensor_id;sensor_type;location;lat;lon;timestamp;pressure;altitude;pressure_sealevel;temperature;humidity
79481;BME280;68944;48.262;14.208;2023-05-16T00:00:04;97923.59;;;11.86;76.44
79481;BME280;68944;48.262;14.208;2023-05-16T00:02:34;97917.28;;;11.75;76.91
79481;BME280;68944;48.262;14.208;2023-05-16T00:05:02;97911.88;;;11.70;77.00
79481;BME280;68944;48.262;14.208;2023-05-16T00:07:29;97923.31;;;11.70;76.73
79481;BME280;68944;48.262;14.208;2023-05-16T00:09:55;97916.53;;;11.63;77.42
79481;BME280;68944;48.262;14.208;2023-05-16T00:12:21;97919.97;;;11.63;77.24
79481;BME280;68944;48.262;14.208;2023-05-16T00:14:47;97904.41;;;11.55;77.42
79481;BME280;68944;48.262;14.208;2023-05-16T00:17:13;97916.41;;;11.57;77.53
79481;BME280;68944;48.262;14.208;2023-05-16T00:19:38;97910.44;;;11.50;77.65
79481;BME280;68944;48.262;14.208;2023-05-16T00:22:04;97915.31;;;11.41;77.47
79481;BME280;68944;48.262;14.208;2023-05-16T00:24:30;97904.38;;;11.37;77.51
79481;BME280;68944;48.262;14.208;2023-05-16T00:26:56;97909.53;;;11.44;77.39
79481;BME280;68944;48.262;14.208;2023-05-16T00:29:21;97910.69;;;11.48;77.37
79481;BME280;68944;48.262;14.208;2023-05-16T00:31:48;97914.72;;;11.51;77.12
79481;BME280;68944;48.262;14.208;2023-05-16T00:34:16;97916.66;;;11.56;77.01
79481;BME280;68944;48.262;14.208;2023-05-16T00:36:42;97913.44;;;11.54;76.68
79481;BME280;68944;48.262;14.208;2023-05-16T00:39:07;97913.75;;;11.57;76.77
79481;BME280;68944;48.262;14.208;2023-05-16T00:41:35;97895.91;;;11.53;76.78
79481;BME280;68944;48.262;14.208;2023-05-16T00:44:01;97891.09;;;11.49;76.01
79481;BME280;68944;48.262;14.208;2023-05-16T00:46:27;97905.84;;;11.45;76.51
79481;BME280;68944;48.262;14.208;2023-05-16T00:48:52;97900.38;;;11.23;77.16
79481;BME280;68944;48.262;14.208;2023-05-16T00:51:18;97905.22;;;11.14;77.27
79481;BME280;68944;48.262;14.208;2023-05-16T00:53:44;97909.84;;;10.95;77.59
79481;BME280;68944;48.262;14.208;2023-05-16T00:56:10;97904.59;;;10.83;78.36
79481;BME280;68944;48.262;14.208;2023-05-16T00:58:35;97902.16;;;10.81;78.22
79481;BME280;68944;48.262;14.208;2023-05-16T01:01:02;97904.09;;;10.86;78.27
79481;BME280;68944;48.262;14.208;2023-05-16T01:03:30;97902.84;;;11.00;77.78
79481;BME280;68944;48.262;14.208;2023-05-16T01:05:57;97887.28;;;10.92;77.33
79481;BME280;68944;48.262;14.208;2023-05-16T01:08:23;97900.44;;;10.87;77.53
79481;BME280;68944;48.262;14.208;2023-05-16T01:13:49;97898.69;;;10.80;77.88
79481;BME280;68944;48.262;14.208;2023-05-16T01:16:32;97903.91;;;10.75;77.78
79481;BME280;68944;48.262;14.208;2023-05-16T01:19:54;97900.69;;;10.73;77.44
79481;BME280;68944;48.262;14.208;2023-05-16T01:27:13;97895.38;;;10.73;77.56
79481;BME280;68944;48.262;14.208;2023-05-16T01:29:40;97898.25;;;10.72;77.78
79481;BME280;68944;48.262;14.208;2023-05-16T01:32:05;97907.69;;;10.55;78.54
79481;BME280;68944;48.262;14.208;2023-05-16T01:34:31;97901.81;;;10.53;78.41
79481;BME280;68944;48.262;14.208;2023-05-16T01:37:14;97902.34;;;10.43;77.88
79481;BME280;68944;48.262;14.208;2023-05-16T01:39:51;97905.22;;;10.42;78.61
79481;BME280;68944;48.262;14.208;2023-05-16T01:42:20;97903.16;;;10.44;78.52
79481;BME280;68944;48.262;14.208;2023-05-16T01:47:19;97904.44;;;10.53;78.40
79481;BME280;68944;48.262;14.208;2023-05-16T01:50:01;97906.66;;;10.56;78.04
79481;BME280;68944;48.262;14.208;2023-05-16T01:55:14;97896.06;;;10.56;77.70
79481;BME280;68944;48.262;14.208;2023-05-16T01:57:41;97894.78;;;10.59;77.48
79481;BME280;68944;48.262;14.208;2023-05-16T02:00:09;97903.44;;;10.66;77.74
79481;BME280;68944;48.262;14.208;2023-05-16T02:02:39;97906.78;;;10.62;77.63
79481;BME280;68944;48.262;14.208;2023-05-16T02:05:05;97898.34;;;10.65;78.28
79481;BME280;68944;48.262;14.208;2023-05-16T02:07:31;97896.19;;;10.62;78.30
79481;BME280;68944;48.262;14.208;2023-05-16T02:09:56;97903.88;;;10.63;78.58
79481;BME280;68944;48.262;14.208;2023-05-16T02:12:23;97900.22;;;10.52;78.09
79481;BME280;68944;48.262;14.208;2023-05-16T02:14:49;97906.16;;;10.47;78.06
79481;BME280;68944;48.262;14.208;2023-05-16T02:17:15;97908.69;;;10.42;77.98
79481;BME280;68944;48.262;14.208;2023-05-16T02:19:41;97908.81;;;10.47;77.60
79481;BME280;68944;48.262;14.208;2023-05-16T02:22:07;97914.38;;;10.58;77.66
79481;BME280;68944;48.262;14.208;2023-05-16T02:24:32;97911.38;;;10.54;77.64
79481;BME280;68944;48.262;14.208;2023-05-16T02:26:58;97912.28;;;10.60;77.21
79481;BME280;68944;48.262;14.208;2023-05-16T02:29:23;97912.75;;;10.69;77.30
79481;BME280;68944;48.262;14.208;2023-05-16T02:31:49;97913.44;;;10.76;76.89
79481;BME280;68944;48.262;14.208;2023-05-16T02:34:14;97885.09;;;10.65;77.12
79481;BME280;68944;48.262;14.208;2023-05-16T02:36:41;97904.47;;;10.77;76.65
79481;BME280;68944;48.262;14.208;2023-05-16T02:39:06;97897.66;;;10.81;76.98
79481;BME280;68944;48.262;14.208;2023-05-16T02:41:34;97899.03;;;10.84;76.97
79481;BME280;68944;48.262;14.208;2023-05-16T02:44:00;97885.22;;;10.82;76.61
79481;BME280;68944;48.262;14.208;2023-05-16T02:46:27;97875.19;;;10.84;76.92
79481;BME280;68944;48.262;14.208;2023-05-16T02:48:55;97899.81;;;10.97;76.85
79481;BME280;68944;48.262;14.208;2023-05-16T02:51:23;97890.28;;;10.96;76.79
79481;BME280;68944;48.262;14.208;2023-05-16T02:53:49;97905.59;;;11.06;77.15
79481;BME280;68944;48.262;14.208;2023-05-16T02:56:15;97905.13;;;11.09;77.42
79481;BME280;68944;48.262;14.208;2023-05-16T02:58:41;97912.16;;;11.15;76.90
79481;BME280;68944;48.262;14.208;2023-05-16T03:01:07;97896.34;;;11.08;77.05
79481;BME280;68944;48.262;14.208;2023-05-16T03:03:34;97901.31;;;11.17;77.16
79481;BME280;68944;48.262;14.208;2023-05-16T03:06:01;97902.22;;;11.22;77.22
79481;BME280;68944;48.262;14.208;2023-05-16T03:08:26;97878.81;;;11.19;76.98
79481;BME280;68944;48.262;14.208;2023-05-16T03:10:52;97889.88;;;11.28;77.28
79481;BME280;68944;48.262;14.208;2023-05-16T03:13:17;97891.13;;;11.25;77.74
79481;BME280;68944;48.262;14.208;2023-05-16T03:15:43;97890.19;;;11.32;77.29
79481;BME280;68944;48.262;14.208;2023-05-16T03:18:09;97879.59;;;11.32;77.19
79481;BME280;68944;48.262;14.208;2023-05-16T03:20:36;97883.97;;;11.38;77.38
79481;BME280;68944;48.262;14.208;2023-05-16T03:23:01;97880.81;;;11.41;77.58
79481;BME280;68944;48.262;14.208;2023-05-16T03:25:27;97878.19;;;11.41;77.40
79481;BME280;68944;48.262;14.208;2023-05-16T03:27:53;97882.56;;;11.47;77.42
79481;BME280;68944;48.262;14.208;2023-05-16T03:30:18;97883.69;;;11.52;77.12
79481;BME280;68944;48.262;14.208;2023-05-16T03:32:44;97858.09;;;11.45;77.07
79481;BME280;68944;48.262;14.208;2023-05-16T03:35:10;97868.25;;;11.48;77.06
79481;BME280;68944;48.262;14.208;2023-05-16T03:37:37;97876.19;;;11.48;76.86
79481;BME280;68944;48.262;14.208;2023-05-16T03:40:03;97870.78;;;11.43;76.49
79481;BME280;68944;48.262;14.208;2023-05-16T03:42:31;97863.22;;;11.35;75.80
79481;BME280;68944;48.262;14.208;2023-05-16T03:44:57;97871.06;;;11.30;75.75
79481;BME280;68944;48.262;14.208;2023-05-16T03:47:22;97852.00;;;11.03;75.43
79481;BME280;68944;48.262;14.208;2023-05-16T03:49:48;97868.56;;;11.11;75.39
79481;BME280;68944;48.262;14.208;2023-05-16T03:52:13;97868.25;;;10.95;75.55
79481;BME280;68944;48.262;14.208;2023-05-16T03:54:39;97861.59;;;10.92;75.22
79481;BME280;68944;48.262;14.208;2023-05-16T03:57:05;97881.19;;;10.91;75.51
79481;BME280;68944;48.262;14.208;2023-05-16T03:59:30;97879.56;;;10.90;76.27
79481;BME280;68944;48.262;14.208;2023-05-16T04:01:56;97876.34;;;10.88;75.97
79481;BME280;68944;48.262;14.208;2023-05-16T04:04:21;97877.97;;;10.89;76.50
79481;BME280;68944;48.262;14.208;2023-05-16T04:06:47;97881.19;;;10.79;76.84
79481;BME280;68944;48.262;14.208;2023-05-16T04:09:12;97867.38;;;10.77;76.52
79481;BME280;68944;48.262;14.208;2023-05-16T04:11:38;97861.63;;;10.56;77.04
79481;BME280;68944;48.262;14.208;2023-05-16T04:14:03;97858.03;;;10.51;76.78
79481;BME280;68944;48.262;14.208;2023-05-16T04:16:29;97880.97;;;10.57;77.46
79481;BME280;68944;48.262;14.208;2023-05-16T04:18:55;97883.75;;;10.50;77.83
79481;BME280;68944;48.262;14.208;2023-05-16T04:21:21;97873.88;;;10.39;78.52
79481;BME280;68944;48.262;14.208;2023-05-16T04:23:46;97874.81;;;10.44;78.32
79481;BME280;68944;48.262;14.208;2023-05-16T04:26:12;97873.56;;;10.47;77.84
79481;BME280;68944;48.262;14.208;2023-05-16T04:28:39;97859.28;;;10.48;78.29
79481;BME280;68944;48.262;14.208;2023-05-16T04:31:04;97865.88;;;10.45;78.01
79481;BME280;68944;48.262;14.208;2023-05-16T04:33:30;97860.91;;;10.49;78.44
79481;BME280;68944;48.262;14.208;2023-05-16T04:35:56;97846.31;;;10.58;77.63
79481;BME280;68944;48.262;14.208;2023-05-16T04:38:23;97858.25;;;10.49;78.00
79481;BME280;68944;48.262;14.208;2023-05-16T04:40:48;97865.53;;;10.78;77.63
79481;BME280;68944;48.262;14.208;2023-05-16T04:43:19;97876.22;;;10.95;77.90
79481;BME280;68944;48.262;14.208;2023-05-16T04:45:44;97869.41;;;10.99;77.47
79481;BME280;68944;48.262;14.208;2023-05-16T04:48:12;97854.28;;;11.12;76.89
79481;BME280;68944;48.262;14.208;2023-05-16T04:50:37;97856.28;;;11.34;76.45
79481;BME280;68944;48.262;14.208;2023-05-16T04:53:03;97863.75;;;11.49;76.08
79481;BME280;68944;48.262;14.208;2023-05-16T04:55:28;97851.84;;;11.52;75.97
79481;BME280;68944;48.262;14.208;2023-05-16T04:57:54;97859.63;;;11.70;76.03
79481;BME280;68944;48.262;14.208;2023-05-16T05:00:19;97860.59;;;11.81;75.12
79481;BME280;68944;48.262;14.208;2023-05-16T05:02:45;97847.06;;;11.83;75.01
79481;BME280;68944;48.262;14.208;2023-05-16T05:05:11;97859.97;;;11.91;74.41
79481;BME280;68944;48.262;14.208;2023-05-16T05:07:36;97852.72;;;11.87;74.72
79481;BME280;68944;48.262;14.208;2023-05-16T05:10:02;97848.66;;;12.13;74.66
79481;BME280;68944;48.262;14.208;2023-05-16T05:12:28;97847.41;;;12.04;74.05
79481;BME280;68944;48.262;14.208;2023-05-16T05:14:53;97856.81;;;12.24;74.22
79481;BME280;68944;48.262;14.208;2023-05-16T05:17:19;97861.78;;;12.37;73.96
79481;BME280;68944;48.262;14.208;2023-05-16T05:19:46;97855.91;;;12.18;73.76
79481;BME280;68944;48.262;14.208;2023-05-16T05:22:13;97850.03;;;12.33;73.34
79481;BME280;68944;48.262;14.208;2023-05-16T05:24:38;97839.97;;;12.35;73.64
79481;BME280;68944;48.262;14.208;2023-05-16T05:27:04;97843.66;;;12.34;74.17
79481;BME280;68944;48.262;14.208;2023-05-16T05:29:30;97850.19;;;12.44;73.56
79481;BME280;68944;48.262;14.208;2023-05-16T05:31:55;97848.59;;;12.25;73.58
79481;BME280;68944;48.262;14.208;2023-05-16T05:34:21;97857.84;;;12.23;73.86
79481;BME280;68944;48.262;14.208;2023-05-16T05:36:46;97861.94;;;12.31;73.60
79481;BME280;68944;48.262;14.208;2023-05-16T05:39:11;97855.97;;;12.40;73.54
79481;BME280;68944;48.262;14.208;2023-05-16T05:41:37;97858.56;;;12.35;72.71
79481;BME280;68944;48.262;14.208;2023-05-16T05:44:03;97822.00;;;12.08;73.15
79481;BME280;68944;48.262;14.208;2023-05-16T05:46:29;97865.97;;;12.16;73.50
79481;BME280;68944;48.262;14.208;2023-05-16T05:48:54;97856.66;;;12.01;73.46
79481;BME280;68944;48.262;14.208;2023-05-16T05:51:20;97857.06;;;12.10;73.95
79481;BME280;68944;48.262;14.208;2023-05-16T05:53:45;97862.16;;;12.29;73.39
79481;BME280;68944;48.262;14.208;2023-05-16T05:56:11;97870.78;;;12.36;73.19
79481;BME280;68944;48.262;14.208;2023-05-16T05:58:37;97873.69;;;12.35;73.40
79481;BME280;68944;48.262;14.208;2023-05-16T06:01:03;97870.66;;;12.26;73.51
79481;BME280;68944;48.262;14.208;2023-05-16T06:03:29;97865.25;;;12.21;73.44
79481;BME280;68944;48.262;14.208;2023-05-16T06:05:54;97877.50;;;12.22;73.58
79481;BME280;68944;48.262;14.208;2023-05-16T06:08:20;97875.94;;;12.26;73.25
79481;BME280;68944;48.262;14.208;2023-05-16T06:10:46;97889.78;;;12.28;72.85
79481;BME280;68944;48.262;14.208;2023-05-16T06:13:11;97884.44;;;12.11;73.24
79481;BME280;68944;48.262;14.208;2023-05-16T06:15:37;97905.56;;;12.17;74.14
79481;BME280;68944;48.262;14.208;2023-05-16T06:18:03;97897.66;;;12.05;73.76
79481;BME280;68944;48.262;14.208;2023-05-16T06:20:28;97908.75;;;12.20;74.27
79481;BME280;68944;48.262;14.208;2023-05-16T06:22:53;97905.31;;;12.36;73.61
79481;BME280;68944;48.262;14.208;2023-05-16T06:25:19;97892.06;;;12.19;73.79
79481;BME280;68944;48.262;14.208;2023-05-16T06:27:44;97892.28;;;12.35;73.80
79481;BME280;68944;48.262;14.208;2023-05-16T06:30:10;97891.97;;;12.48;73.70
79481;BME280;68944;48.262;14.208;2023-05-16T06:32:35;97899.28;;;12.58;72.86
79481;BME280;68944;48.262;14.208;2023-05-16T06:35:01;97904.34;;;12.77;73.11
79481;BME280;68944;48.262;14.208;2023-05-16T06:37:27;97889.81;;;12.85;72.60
79481;BME280;68944;48.262;14.208;2023-05-16T06:39:52;97909.44;;;13.01;72.35
79481;BME280;68944;48.262;14.208;2023-05-16T06:42:18;97890.59;;;13.03;72.36
79481;BME280;68944;48.262;14.208;2023-05-16T06:44:45;97901.22;;;13.25;71.70
79481;BME280;68944;48.262;14.208;2023-05-16T06:47:11;97915.53;;;13.41;71.47
79481;BME280;68944;48.262;14.208;2023-05-16T06:49:36;97902.16;;;13.59;71.59
79481;BME280;68944;48.262;14.208;2023-05-16T06:52:02;97908.63;;;13.68;71.39
79481;BME280;68944;48.262;14.208;2023-05-16T06:54:27;97902.53;;;13.68;71.41
79481;BME280;68944;48.262;14.208;2023-05-16T06:56:53;97901.88;;;13.83;70.85
79481;BME280;68944;48.262;14.208;2023-05-16T06:59:18;97917.03;;;14.10;70.93
79481;BME280;68944;48.262;14.208;2023-05-16T07:01:44;97903.72;;;14.10;70.26
79481;BME280;68944;48.262;14.208;2023-05-16T07:04:10;97907.03;;;14.22;70.05
79481;BME280;68944;48.262;14.208;2023-05-16T07:06:35;97898.66;;;14.41;69.22
79481;BME280;68944;48.262;14.208;2023-05-16T07:09:01;97903.38;;;14.72;68.87
79481;BME280;68944;48.262;14.208;2023-05-16T07:11:26;97902.84;;;14.75;68.30
79481;BME280;68944;48.262;14.208;2023-05-16T07:13:52;97898.44;;;14.92;68.25
79481;BME280;68944;48.262;14.208;2023-05-16T07:16:17;97878.97;;;14.91;68.00
79481;BME280;68944;48.262;14.208;2023-05-16T07:18:44;97887.94;;;15.28;66.93
79481;BME280;68944;48.262;14.208;2023-05-16T07:21:10;97885.84;;;15.41;67.22
79481;BME280;68944;48.262;14.208;2023-05-16T07:23:35;97879.19;;;15.54;66.70
79481;BME280;68944;48.262;14.208;2023-05-16T07:26:01;97866.16;;;15.57;66.03
79481;BME280;68944;48.262;14.208;2023-05-16T07:28:27;97893.94;;;15.67;65.26
79481;BME280;68944;48.262;14.208;2023-05-16T07:30:53;97882.19;;;15.73;64.98
79481;BME280;68944;48.262;14.208;2023-05-16T07:33:18;97882.19;;;15.73;65.36
79481;BME280;68944;48.262;14.208;2023-05-16T07:35:44;97877.13;;;15.87;65.66
79481;BME280;68944;48.262;14.208;2023-05-16T07:38:10;97890.50;;;15.92;64.66
79481;BME280;68944;48.262;14.208;2023-05-16T07:40:36;97893.44;;;16.01;65.31
79481;BME280;68944;48.262;14.208;2023-05-16T07:43:01;97887.00;;;15.81;64.03
79481;BME280;68944;48.262;14.208;2023-05-16T07:45:27;97900.13;;;15.93;64.71
79481;BME280;68944;48.262;14.208;2023-05-16T07:47:53;97881.38;;;15.67;64.54
79481;BME280;68944;48.262;14.208;2023-05-16T07:50:18;97896.59;;;15.72;65.13
79481;BME280;68944;48.262;14.208;2023-05-16T07:52:44;97885.44;;;15.86;64.57
79481;BME280;68944;48.262;14.208;2023-05-16T07:55:09;97901.97;;;15.83;64.57
79481;BME280;68944;48.262;14.208;2023-05-16T07:57:35;97903.84;;;15.82;64.56
79481;BME280;68944;48.262;14.208;2023-05-16T08:00:01;97896.13;;;15.86;64.53
79481;BME280;68944;48.262;14.208;2023-05-16T08:02:37;97903.56;;;15.84;64.51
79481;BME280;68944;48.262;14.208;2023-05-16T08:05:02;97908.34;;;15.71;64.86
79481;BME280;68944;48.262;14.208;2023-05-16T08:07:28;97903.56;;;15.78;64.77
79481;BME280;68944;48.262;14.208;2023-05-16T08:09:53;97903.03;;;15.81;64.57
79481;BME280;68944;48.262;14.208;2023-05-16T08:12:19;97912.69;;;15.88;64.99
79481;BME280;68944;48.262;14.208;2023-05-16T08:14:44;97918.00;;;15.88;64.91
79481;BME280;68944;48.262;14.208;2023-05-16T08:17:10;97922.53;;;15.82;65.39
79481;BME280;68944;48.262;14.208;2023-05-16T08:19:35;97917.22;;;15.87;65.94
79481;BME280;68944;48.262;14.208;2023-05-16T08:22:01;97896.13;;;15.86;65.20
79481;BME280;68944;48.262;14.208;2023-05-16T08:24:27;97910.59;;;16.11;64.33
79481;BME280;68944;48.262;14.208;2023-05-16T08:26:52;97894.25;;;16.02;64.15
79481;BME280;68944;48.262;14.208;2023-05-16T08:29:18;97909.22;;;16.03;64.29
79481;BME280;68944;48.262;14.208;2023-05-16T08:31:43;97910.31;;;16.12;64.72
79481;BME280;68944;48.262;14.208;2023-05-16T08:34:09;97917.53;;;16.27;64.29
79481;BME280;68944;48.262;14.208;2023-05-16T08:36:35;97913.00;;;16.38;63.83
79481;BME280;68944;48.262;14.208;2023-05-16T08:39:01;97907.09;;;16.42;63.79
79481;BME280;68944;48.262;14.208;2023-05-16T08:41:27;97903.38;;;16.17;64.19
79481;BME280;68944;48.262;14.208;2023-05-16T08:43:53;97895.09;;;16.13;64.40
79481;BME280;68944;48.262;14.208;2023-05-16T08:46:21;97892.94;;;16.10;64.46
79481;BME280;68944;48.262;14.208;2023-05-16T08:48:50;97912.72;;;16.24;64.70
79481;BME280;68944;48.262;14.208;2023-05-16T08:51:18;97905.22;;;16.37;65.26
79481;BME280;68944;48.262;14.208;2023-05-16T08:54:02;97891.88;;;16.42;64.91
79481;BME280;68944;48.262;14.208;2023-05-16T08:56:29;97897.22;;;16.47;64.37
79481;BME280;68944;48.262;14.208;2023-05-16T08:58:56;97886.25;;;16.07;65.07
79481;BME280;68944;48.262;14.208;2023-05-16T09:01:22;97886.00;;;16.09;64.84
79481;BME280;68944;48.262;14.208;2023-05-16T09:03:48;97875.84;;;16.06;65.01
79481;BME280;68944;48.262;14.208;2023-05-16T09:06:14;97868.63;;;16.17;65.59
79481;BME280;68944;48.262;14.208;2023-05-16T09:08:41;97869.69;;;16.31;65.52
79481;BME280;68944;48.262;14.208;2023-05-16T09:11:08;97869.97;;;16.19;66.03
79481;BME280;68944;48.262;14.208;2023-05-16T09:13:33;97863.00;;;16.23;65.89
79481;BME280;68944;48.262;14.208;2023-05-16T09:16:16;97852.03;;;16.30;66.21
79481;BME280;68944;48.262;14.208;2023-05-16T09:18:45;97861.66;;;16.42;66.03
79481;BME280;68944;48.262;14.208;2023-05-16T09:21:11;97848.00;;;16.48;65.94
79481;BME280;68944;48.262;14.208;2023-05-16T09:23:38;97855.50;;;16.57;66.19
79481;BME280;68944;48.262;14.208;2023-05-16T09:26:06;97843.69;;;16.63;65.37
79481;BME280;68944;48.262;14.208;2023-05-16T09:28:32;97846.31;;;16.89;65.50
79481;BME280;68944;48.262;14.208;2023-05-16T09:30:58;97838.50;;;17.09;64.80
79481;BME280;68944;48.262;14.208;2023-05-16T09:33:27;97831.94;;;17.36;63.34
79481;BME280;68944;48.262;14.208;2023-05-16T09:36:03;97830.41;;;17.65;63.43
79481;BME280;68944;48.262;14.208;2023-05-16T09:38:28;97829.63;;;17.99;62.37
79481;BME280;68944;48.262;14.208;2023-05-16T09:40:54;97830.47;;;18.29;61.78
79481;BME280;68944;48.262;14.208;2023-05-16T09:43:25;97811.06;;;18.43;61.85
79481;BME280;68944;48.262;14.208;2023-05-16T09:45:51;97802.78;;;18.64;61.61
79481;BME280;68944;48.262;14.208;2023-05-16T09:48:17;97819.41;;;18.85;60.02
79481;BME280;68944;48.262;14.208;2023-05-16T09:50:49;97837.28;;;18.95;60.33
79481;BME280;68944;48.262;14.208;2023-05-16T09:53:23;97830.84;;;18.96;60.26
79481;BME280;68944;48.262;14.208;2023-05-16T09:56:09;97823.66;;;19.16;59.51
79481;BME280;68944;48.262;14.208;2023-05-16T09:58:39;97836.13;;;19.26;59.45
79481;BME280;68944;48.262;14.208;2023-05-16T10:01:06;97838.97;;;19.35;58.62
79481;BME280;68944;48.262;14.208;2023-05-16T10:03:36;97833.97;;;19.28;57.69
79481;BME280;68944;48.262;14.208;2023-05-16T10:06:03;97831.78;;;19.06;57.73
79481;BME280;68944;48.262;14.208;2023-05-16T10:08:31;97829.47;;;18.74;58.05
79481;BME280;68944;48.262;14.208;2023-05-16T10:11:01;97843.34;;;18.57;58.20
79481;BME280;68944;48.262;14.208;2023-05-16T10:13:29;97842.75;;;18.36;58.53
79481;BME280;68944;48.262;14.208;2023-05-16T10:15:56;97857.38;;;18.19;58.99
79481;BME280;68944;48.262;14.208;2023-05-16T10:18:28;97835.69;;;17.80;60.18
79481;BME280;68944;48.262;14.208;2023-05-16T10:20:54;97874.78;;;17.81;60.94
79481;BME280;68944;48.262;14.208;2023-05-16T10:23:24;97885.63;;;17.60;62.37
79481;BME280;68944;48.262;14.208;2023-05-16T10:25:51;97870.41;;;17.50;62.70
79481;BME280;68944;48.262;14.208;2023-05-16T10:28:17;97879.25;;;17.51;62.49
79481;BME280;68944;48.262;14.208;2023-05-16T10:30:44;97882.81;;;17.41;62.96
79481;BME280;68944;48.262;14.208;2023-05-16T10:33:14;97885.22;;;17.32;61.70
79481;BME280;68944;48.262;14.208;2023-05-16T10:35:42;97877.28;;;17.16;62.38
79481;BME280;68944;48.262;14.208;2023-05-16T10:38:09;97854.81;;;17.02;63.46
79481;BME280;68944;48.262;14.208;2023-05-16T10:40:37;97854.78;;;17.07;64.02
79481;BME280;68944;48.262;14.208;2023-05-16T10:43:04;97858.53;;;17.11;63.75
79481;BME280;68944;48.262;14.208;2023-05-16T10:45:30;97846.22;;;17.10;63.44
79481;BME280;68944;48.262;14.208;2023-05-16T10:47:58;97867.66;;;17.15;63.47
79481;BME280;68944;48.262;14.208;2023-05-16T10:52:55;97854.00;;;17.06;64.80
79481;BME280;68944;48.262;14.208;2023-05-16T10:55:21;97843.00;;;17.13;64.64
79481;BME280;68944;48.262;14.208;2023-05-16T10:57:46;97848.34;;;17.13;65.81
79481;BME280;68944;48.262;14.208;2023-05-16T11:00:21;97849.91;;;17.30;65.37
79481;BME280;68944;48.262;14.208;2023-05-16T11:02:46;97855.56;;;17.23;65.41
79481;BME280;68944;48.262;14.208;2023-05-16T11:05:16;97880.66;;;17.38;64.42
79481;BME280;68944;48.262;14.208;2023-05-16T11:07:43;97876.41;;;17.32;64.19
79481;BME280;68944;48.262;14.208;2023-05-16T11:10:10;97872.44;;;17.13;64.42
79481;BME280;68944;48.262;14.208;2023-05-16T11:12:49;97867.19;;;16.92;64.42
79481;BME280;68944;48.262;14.208;2023-05-16T11:17:43;97861.09;;;16.66;65.98
79481;BME280;68944;48.262;14.208;2023-05-16T11:20:29;97860.81;;;16.67;65.85
79481;BME280;68944;48.262;14.208;2023-05-16T11:25:41;97861.94;;;16.40;67.02
79481;BME280;68944;48.262;14.208;2023-05-16T11:28:08;97857.69;;;16.13;68.91
79481;BME280;68944;48.262;14.208;2023-05-16T11:30:35;97848.56;;;15.98;69.63
79481;BME280;68944;48.262;14.208;2023-05-16T11:33:01;97873.13;;;16.00;69.30
79481;BME280;68944;48.262;14.208;2023-05-16T11:35:26;97882.47;;;15.98;69.53
79481;BME280;68944;48.262;14.208;2023-05-16T11:37:53;97870.19;;;15.81;70.35
79481;BME280;68944;48.262;14.208;2023-05-16T11:40:18;97892.59;;;15.75;70.64
79481;BME280;68944;48.262;14.208;2023-05-16T11:42:46;97915.56;;;15.70;70.85
79481;BME280;68944;48.262;14.208;2023-05-16T11:45:18;97920.09;;;15.60;71.20
79481;BME280;68944;48.262;14.208;2023-05-16T11:47:47;97911.00;;;15.55;71.51
79481;BME280;68944;48.262;14.208;2023-05-16T11:50:14;97901.59;;;15.42;71.28
79481;BME280;68944;48.262;14.208;2023-05-16T11:52:45;97913.88;;;15.43;71.30
79481;BME280;68944;48.262;14.208;2023-05-16T11:55:11;97903.44;;;15.42;71.03
79481;BME280;68944;48.262;14.208;2023-05-16T11:57:38;97904.03;;;15.49;71.01
79481;BME280;68944;48.262;14.208;2023-05-16T12:00:14;97901.09;;;15.45;71.21
79481;BME280;68944;48.262;14.208;2023-05-16T12:02:41;97899.22;;;15.46;71.54
79481;BME280;68944;48.262;14.208;2023-05-16T12:05:08;97886.94;;;15.45;71.84
79481;BME280;68944;48.262;14.208;2023-05-16T12:07:35;97872.53;;;15.46;71.11
79481;BME280;68944;48.262;14.208;2023-05-16T12:10:08;97870.41;;;15.48;71.20
79481;BME280;68944;48.262;14.208;2023-05-16T12:12:35;97847.97;;;15.44;71.54
79481;BME280;68944;48.262;14.208;2023-05-16T12:15:02;97862.34;;;15.38;71.89
79481;BME280;68944;48.262;14.208;2023-05-16T12:17:28;97878.66;;;15.41;71.51
79481;BME280;68944;48.262;14.208;2023-05-16T12:19:54;97881.84;;;15.38;71.49
79481;BME280;68944;48.262;14.208;2023-05-16T12:22:20;97876.69;;;15.16;71.67
79481;BME280;68944;48.262;14.208;2023-05-16T12:24:45;97897.75;;;15.12;72.25
79481;BME280;68944;48.262;14.208;2023-05-16T12:27:11;97902.50;;;15.05;73.22
79481;BME280;68944;48.262;14.208;2023-05-16T12:29:37;97901.72;;;15.09;72.42
79481;BME280;68944;48.262;14.208;2023-05-16T12:32:03;97887.88;;;15.12;73.05
79481;BME280;68944;48.262;14.208;2023-05-16T12:34:31;97886.28;;;15.17;73.11
79481;BME280;68944;48.262;14.208;2023-05-16T12:36:58;97878.28;;;15.17;72.68
79481;BME280;68944;48.262;14.208;2023-05-16T12:39:23;97866.00;;;15.10;73.07
79481;BME280;68944;48.262;14.208;2023-05-16T12:41:49;97887.94;;;15.28;73.28
79481;BME280;68944;48.262;14.208;2023-05-16T12:44:16;97889.31;;;15.36;72.89
79481;BME280;68944;48.262;14.208;2023-05-16T12:46:49;97896.81;;;15.39;72.76
79481;BME280;68944;48.262;14.208;2023-05-16T12:49:20;97889.28;;;15.31;72.76
79481;BME280;68944;48.262;14.208;2023-05-16T12:51:54;97878.56;;;15.26;73.51
79481;BME280;68944;48.262;14.208;2023-05-16T12:54:20;97887.97;;;15.39;72.56
79481;BME280;68944;48.262;14.208;2023-05-16T12:56:47;97875.41;;;15.34;70.88
79481;BME280;68944;48.262;14.208;2023-05-16T12:59:13;97876.78;;;15.47;70.69
79481;BME280;68944;48.262;14.208;2023-05-16T13:01:39;97870.41;;;15.53;70.79
79481;BME280;68944;48.262;14.208;2023-05-16T13:04:05;97857.59;;;15.66;69.44
79481;BME280;68944;48.262;14.208;2023-05-16T13:06:31;97869.91;;;15.83;68.31
79481;BME280;68944;48.262;14.208;2023-05-16T13:08:57;97872.88;;;15.97;67.64